Time;durP1;ratioP1;P1;durP2;ratioP2;P2;SDS_P1;SDS_P2;PMS_P1;PMS_P2;Temp;Humidity;BMP_temperature;BMP_pressure;BME280_temperature;BME280_humidity;BME280_pressure;Samples;Min_cycle;Max_cycle;Signal;HPM_P1;HPM_P2
2022/04/08 00:01:46;;;;;;;6.80;2.30;;;7.10;1.00;;;;;;4950507;28;20891;-65
2022/04/08 00:04:13;;;;;;;7.63;1.70;;;7.10;1.00;;;;;;4944417;28;20736;-66
2022/04/08 00:06:40;;;;;;;6.00;1.70;;;7.10;1.00;;;;;;4961392;28;20199;-65
2022/04/08 00:09:07;;;;;;;5.20;1.90;;;7.10;1.00;;;;;;4947468;28;20210;-65
2022/04/08 00:11:34;;;;;;;7.33;1.60;;;7.20;1.00;;;;;;4945083;28;20210;-64
2022/04/08 00:14:01;;;;;;;7.50;1.70;;;7.20;1.00;;;;;;4963038;28;20597;-63
2022/04/08 00:16:28;;;;;;;6.87;1.90;;;7.20;1.00;;;;;;4945470;28;20611;-65
2022/04/08 00:18:56;;;;;;;5.67;1.43;;;7.20;1.00;;;;;;4944961;28;20245;-65
2022/04/08 00:21:25;;;;;;;7.77;2.03;;;7.20;1.00;;;;;;4928209;28;20694;-65
2022/04/08 00:23:53;;;;;;;2.57;1.60;;;7.20;1.00;;;;;;4929227;28;20203;-65
2022/04/08 00:26:20;;;;;;;4.83;1.77;;;7.20;1.00;;;;;;4940795;28;20334;-63
2022/04/08 00:28:47;;;;;;;6.07;1.70;;;7.20;1.00;;;;;;4960898;28;20202;-65
2022/04/08 00:35:14;;;;;;;3.93;1.87;;;7.10;1.00;;;;;;4962266;28;20230;-64
2022/04/08 00:37:41;;;;;;;9.87;2.17;;;7.00;1.00;;;;;;4961432;28;20269;-65
2022/04/08 00:40:10;;;;;;;6.20;2.10;;;7.00;1.00;;;;;;4944604;28;20215;-65
2022/04/08 00:42:40;;;;;;;6.27;2.13;;;6.90;1.00;;;;;;4951737;28;20218;-65
2022/04/08 00:45:07;;;;;;;6.43;2.00;;;6.90;1.00;;;;;;4961180;28;20202;-65
2022/04/08 00:47:36;;;;;;;6.53;2.17;;;6.90;1.00;;;;;;4962961;28;20221;-63
2022/04/08 00:50:04;;;;;;;9.50;2.50;;;6.90;1.00;;;;;;4950176;28;20202;-63
2022/04/08 00:52:35;;;;;;;7.83;2.40;;;6.90;1.00;;;;;;4944733;28;20230;-65
2022/04/08 00:55:03;;;;;;;5.43;2.00;;;6.90;1.00;;;;;;4933960;28;20769;-65
2022/04/08 00:57:31;;;;;;;7.47;2.00;;;6.90;1.00;;;;;;4944121;28;20195;-65
2022/04/08 01:00:07;;;;;;;9.27;2.33;;;6.90;1.00;;;;;;4963376;28;20671;-64
2022/04/08 01:02:34;;;;;;;4.57;1.70;;;6.90;1.00;;;;;;4931805;28;20257;-66
2022/04/08 01:05:03;;;;;;;6.80;2.30;;;6.90;1.00;;;;;;4947813;28;20210;-66
2022/04/08 01:07:31;;;;;;;6.60;2.10;;;6.90;1.00;;;;;;4944261;28;20202;-65
2022/04/08 01:09:58;;;;;;;8.63;2.00;;;6.90;1.00;;;;;;4961772;28;20214;-64
2022/04/08 01:12:25;;;;;;;6.60;1.83;;;6.80;1.00;;;;;;4950664;28;20199;-64
2022/04/08 01:14:57;;;;;;;5.67;1.40;;;6.80;1.00;;;;;;4932792;28;20229;-64
2022/04/08 01:17:25;;;;;;;6.83;1.80;;;6.90;1.00;;;;;;4960922;28;20606;-65
2022/04/08 01:19:52;;;;;;;5.27;1.60;;;6.80;1.00;;;;;;4944274;28;20840;-65
2022/04/08 01:22:20;;;;;;;4.93;1.67;;;6.80;1.00;;;;;;4952264;28;20255;-65
2022/04/08 01:24:56;;;;;;;5.30;1.73;;;6.70;1.00;;;;;;4944031;28;20372;-65
2022/04/08 01:27:23;;;;;;;4.60;2.03;;;6.70;1.00;;;;;;4959712;28;20667;-65
2022/04/08 01:29:50;;;;;;;5.90;1.50;;;6.70;1.00;;;;;;4960838;28;20203;-65
2022/04/08 01:32:17;;;;;;;4.77;1.60;;;6.70;1.00;;;;;;4961698;28;20231;-65
2022/04/08 01:34:45;;;;;;;6.17;1.60;;;6.70;1.00;;;;;;4958763;28;20246;-66
2022/04/08 01:37:13;;;;;;;3.13;1.30;;;6.70;1.00;;;;;;4942990;28;21057;-64
2022/04/08 01:39:41;;;;;;;3.63;1.20;;;6.70;1.00;;;;;;4961651;28;20246;-64
2022/04/08 01:42:09;;;;;;;4.67;1.40;;;6.70;1.00;;;;;;4949379;28;20203;-67
2022/04/08 01:44:36;;;;;;;5.53;1.83;;;6.70;1.00;;;;;;4948027;28;20685;-65
2022/04/08 01:47:04;;;;;;;5.67;1.40;;;6.70;1.00;;;;;;4959958;28;20235;-65
2022/04/08 01:49:31;;;;;;;6.83;1.80;;;6.70;1.00;;;;;;4943566;28;20230;-65
2022/04/08 01:51:59;;;;;;;3.40;1.43;;;6.70;1.00;;;;;;4960199;28;20718;-65
2022/04/08 01:54:26;;;;;;;4.53;1.30;;;6.70;1.00;;;;;;4960683;28;20194;-65
2022/04/08 01:56:53;;;;;;;4.70;1.40;;;6.70;1.00;;;;;;4950355;28;20220;-64
2022/04/08 01:59:20;;;;;;;6.30;1.27;;;6.70;1.00;;;;;;4949865;28;20300;-63
2022/04/08 02:01:47;;;;;;;5.60;1.67;;;6.60;1.00;;;;;;4948995;28;20983;-65
2022/04/08 02:04:16;;;;;;;4.50;1.50;;;6.60;1.00;;;;;;4949669;28;20289;-65
2022/04/08 02:06:43;;;;;;;2.73;1.40;;;6.60;1.00;;;;;;4945613;28;20681;-65
2022/04/08 02:09:12;;;;;;;7.27;1.80;;;6.50;1.00;;;;;;4944536;28;20233;-65
2022/04/08 02:11:38;;;;;;;3.57;1.40;;;6.50;1.00;;;;;;4943357;28;20203;-65
2022/04/08 02:14:06;;;;;;;6.73;1.67;;;6.60;1.00;;;;;;4927724;28;20258;-66
2022/04/08 02:16:32;;;;;;;4.80;1.93;;;6.50;1.00;;;;;;4940949;28;20207;-65
2022/04/08 02:19:00;;;;;;;3.97;1.63;;;6.60;1.00;;;;;;4942811;28;20602;-64
2022/04/08 02:21:27;;;;;;;4.00;1.40;;;6.50;1.00;;;;;;4929631;28;20230;-63
2022/04/08 02:23:55;;;;;;;4.80;1.53;;;6.40;1.00;;;;;;4959985;28;20191;-64
2022/04/08 02:26:22;;;;;;;4.97;1.63;;;6.90;1.00;;;;;;4943695;28;20233;-65
2022/04/08 02:28:49;;;;;;;6.07;2.33;;;6.40;1.00;;;;;;4959576;28;20202;-63
2022/04/08 02:31:16;;;;;;;8.33;1.73;;;6.40;1.00;;;;;;4959242;28;20199;-65
2022/04/08 02:33:43;;;;;;;4.07;1.37;;;6.40;1.00;;;;;;4958239;28;20282;-65
2022/04/08 02:36:10;;;;;;;4.40;1.67;;;6.40;1.00;;;;;;4941583;28;20205;-66
2022/04/08 02:38:37;;;;;;;5.00;1.80;;;6.30;1.00;;;;;;4940846;28;20213;-65
2022/04/08 02:41:04;;;;;;;6.07;1.70;;;6.30;1.00;;;;;;4932219;28;20223;-66
2022/04/08 02:43:31;;;;;;;6.00;1.87;;;6.30;1.00;;;;;;4947708;28;20199;-65
2022/04/08 02:45:58;;;;;;;6.93;1.80;;;6.30;1.00;;;;;;4958461;28;20218;-65
2022/04/08 02:48:25;;;;;;;5.73;1.90;;;6.20;1.00;;;;;;4941705;28;20253;-65
2022/04/08 02:50:52;;;;;;;6.50;2.03;;;6.20;1.00;;;;;;4941428;28;20224;-66
2022/04/08 02:53:19;;;;;;;7.30;2.10;;;6.10;1.00;;;;;;4927470;28;20289;-65
2022/04/08 02:55:46;;;;;;;3.07;1.77;;;6.10;1.00;;;;;;4959109;28;20198;-65
2022/04/08 02:58:13;;;;;;;5.77;1.93;;;6.10;1.00;;;;;;4960646;28;20232;-64
2022/04/08 03:00:40;;;;;;;8.10;1.80;;;6.10;1.00;;;;;;4959583;28;20230;-65
2022/04/08 03:03:07;;;;;;;6.00;1.63;;;6.10;1.00;;;;;;4948363;28;20198;-65
2022/04/08 03:05:34;;;;;;;4.93;1.67;;;6.10;1.00;;;;;;4942328;28;20197;-65
2022/04/08 03:08:01;;;;;;;7.47;1.93;;;6.00;1.00;;;;;;4942332;28;20206;-66
2022/04/08 03:10:28;;;;;;;6.73;1.67;;;6.00;1.00;;;;;;4959724;28;20202;-65
2022/04/08 03:12:55;;;;;;;3.83;1.40;;;6.00;1.00;;;;;;4959313;28;20223;-65
2022/04/08 03:15:22;;;;;;;5.07;1.40;;;6.00;1.00;;;;;;4956565;28;20333;-65
2022/04/08 03:17:51;;;;;;;2.57;1.30;;;5.80;1.00;;;;;;4957958;28;20257;-65
2022/04/08 03:20:18;;;;;;;4.27;1.23;;;5.60;1.00;;;;;;4945618;28;20294;-65
2022/04/08 03:22:45;;;;;;;4.93;1.33;;;5.50;1.00;;;;;;4932878;28;20248;-64
2022/04/08 03:25:13;;;;;;;4.27;1.30;;;5.50;1.00;;;;;;4958268;28;20286;-64
2022/04/08 03:27:40;;;;;;;10.30;2.37;;;5.60;1.00;;;;;;4959796;28;20245;-65
2022/04/08 03:30:07;;;;;;;4.37;1.80;;;5.60;1.00;;;;;;4942680;28;20218;-64
2022/04/08 03:32:34;;;;;;;4.10;1.47;;;5.70;1.00;;;;;;4945251;28;20198;-65
2022/04/08 03:35:01;;;;;;;5.17;1.30;;;5.70;1.00;;;;;;4961706;28;20771;-65
2022/04/08 03:37:29;;;;;;;4.33;1.50;;;5.70;1.00;;;;;;4964471;28;20211;-64
2022/04/08 03:39:57;;;;;;;2.43;1.43;;;5.70;1.00;;;;;;4954137;28;20210;-63
2022/04/08 03:42:25;;;;;;;3.23;1.20;;;5.60;1.00;;;;;;4952240;28;20237;-63
2022/04/08 03:44:54;;;;;;;3.30;1.70;;;5.60;1.00;;;;;;4961979;28;20198;-63
2022/04/08 03:47:21;;;;;;;5.17;1.87;;;5.50;1.00;;;;;;4946894;28;20206;-65
2022/04/08 03:49:48;;;;;;;9.77;2.60;;;5.30;1.00;;;;;;4951569;28;20360;-65
2022/04/08 03:52:15;;;;;;;15.70;3.03;;;5.30;1.00;;;;;;4944814;28;20682;-64
2022/04/08 03:54:42;;;;;;;9.50;2.90;;;5.30;1.00;;;;;;4946542;28;20545;-64
2022/04/08 03:57:10;;;;;;;8.17;2.47;;;5.20;1.00;;;;;;4961915;28;20211;-64
2022/04/08 03:59:41;;;;;;;8.07;2.37;;;5.20;1.00;;;;;;4929637;28;20282;-66
2022/04/08 04:02:08;;;;;;;9.70;2.63;;;5.20;1.00;;;;;;4960581;28;20244;-65
2022/04/08 04:04:35;;;;;;;9.13;2.67;;;5.10;1.00;;;;;;4950137;28;20234;-65
2022/04/08 04:07:02;;;;;;;12.47;2.67;;;5.10;1.00;;;;;;4945596;28;20199;-65
2022/04/08 04:09:29;;;;;;;8.77;2.53;;;5.10;1.00;;;;;;4944581;28;20227;-64
2022/04/08 04:11:57;;;;;;;10.20;2.83;;;5.10;1.00;;;;;;4945489;28;20214;-64
2022/04/08 04:14:23;;;;;;;12.90;3.10;;;5.10;1.00;;;;;;4935152;28;20202;-64
2022/04/08 04:16:50;;;;;;;14.13;2.93;;;5.10;1.00;;;;;;4963883;28;20203;-64
2022/04/08 04:19:18;;;;;;;12.60;2.97;;;5.10;1.00;;;;;;4960786;28;20711;-65
2022/04/08 04:21:47;;;;;;;6.83;2.73;;;5.10;1.00;;;;;;4951833;28;20274;-63
2022/04/08 04:24:15;;;;;;;14.97;3.20;;;5.10;1.00;;;;;;4949825;28;20203;-64
2022/04/08 04:26:42;;;;;;;14.77;3.33;;;5.00;1.00;;;;;;4960878;28;20589;-64
2022/04/08 04:29:11;;;;;;;15.03;3.37;;;5.00;1.00;;;;;;4945805;28;20199;-67
2022/04/08 04:31:38;;;;;;;14.07;3.23;;;5.10;1.00;;;;;;4947662;28;20293;-67
2022/04/08 04:34:05;;;;;;;15.03;4.40;;;5.10;1.00;;;;;;4946341;28;20261;-67
2022/04/08 04:36:32;;;;;;;11.80;2.93;;;5.00;1.00;;;;;;4965517;28;20297;-66
2022/04/08 04:38:59;;;;;;;8.00;3.13;;;4.90;1.00;;;;;;4953075;28;20756;-66
2022/04/08 04:41:26;;;;;;;16.77;4.53;;;4.90;1.00;;;;;;4961972;28;20206;-65
2022/04/08 04:43:53;;;;;;;16.43;4.80;;;4.90;1.00;;;;;;4952229;28;20226;-65
2022/04/08 04:46:24;;;;;;;11.77;3.10;;;4.90;1.00;;;;;;4961647;28;20190;-65
2022/04/08 04:48:51;;;;;;;14.90;3.33;;;4.80;1.00;;;;;;4965329;28;20237;-65
2022/04/08 04:51:18;;;;;;;15.90;3.87;;;4.80;1.00;;;;;;4964538;28;20812;-64
2022/04/08 04:53:45;;;;;;;11.97;3.73;;;4.90;1.00;;;;;;4954027;28;20280;-65
2022/04/08 04:56:12;;;;;;;9.83;3.33;;;4.80;1.00;;;;;;4955017;28;20206;-65
2022/04/08 04:58:42;;;;;;;16.43;3.70;;;4.90;1.00;;;;;;4965635;28;20286;-66
2022/04/08 05:01:08;;;;;;;9.63;3.00;;;4.90;1.00;;;;;;4946096;28;20226;-64
2022/04/08 05:03:40;;;;;;;22.77;5.47;;;4.90;1.00;;;;;;4946601;28;20207;-64
2022/04/08 05:06:07;;;;;;;13.70;4.77;;;4.80;1.00;;;;;;4944071;28;20199;-68
2022/04/08 05:08:34;;;;;;;8.97;2.77;;;4.90;1.00;;;;;;4935253;28;20199;-65
2022/04/08 05:11:01;;;;;;;20.47;4.00;;;5.10;1.00;;;;;;4953081;28;20203;-65
2022/04/08 05:13:28;;;;;;;18.47;3.90;;;5.10;1.00;;;;;;4961664;28;20262;-66
2022/04/08 05:15:57;;;;;;;13.63;3.13;;;5.20;1.00;;;;;;4942220;28;20207;-63
2022/04/08 05:18:24;;;;;;;14.73;2.67;;;5.30;1.00;;;;;;4944765;28;20207;-65
2022/04/08 05:20:52;;;;;;;10.47;2.50;;;5.40;1.00;;;;;;4950536;28;20231;-64
2022/04/08 05:23:20;;;;;;;13.57;2.87;;;5.50;1.00;;;;;;4947401;28;20662;-68
2022/04/08 05:25:47;;;;;;;12.00;2.67;;;5.60;99.90;;;;;;4954713;28;20230;-67
2022/04/08 05:28:15;;;;;;;8.17;2.30;;;5.50;99.90;;;;;;4945549;28;20210;-65
2022/04/08 05:30:43;;;;;;;11.80;2.43;;;5.40;99.90;;;;;;4963882;28;20676;-65
2022/04/08 05:33:15;;;;;;;10.33;2.50;;;5.40;99.90;;;;;;4961245;28;20244;-64
2022/04/08 05:35:42;;;;;;;9.37;2.33;;;5.40;99.90;;;;;;4948457;28;20728;-64
2022/04/08 05:38:09;;;;;;;8.27;2.43;;;5.50;99.90;;;;;;4945574;28;20230;-66
2022/04/08 05:40:36;;;;;;;12.50;2.53;;;5.60;99.90;;;;;;4962619;28;20591;-65
2022/04/08 05:43:03;;;;;;;8.40;2.40;;;5.60;99.90;;;;;;4962810;28;20278;-64
2022/04/08 05:45:30;;;;;;;12.57;2.83;;;5.70;99.90;;;;;;4945397;28;20203;-64
2022/04/08 05:48:05;;;;;;;11.67;3.00;;;5.70;99.90;;;;;;4932329;28;20301;-63
2022/04/08 05:50:32;;;;;;;9.57;3.30;;;5.80;99.90;;;;;;4960588;28;20206;-64
2022/04/08 05:52:59;;;;;;;8.03;2.40;;;5.90;99.90;;;;;;4958505;28;20213;-64
2022/04/08 05:55:46;;;;;;;16.43;4.77;;;5.90;99.90;;;;;;4944945;28;20683;-65
2022/04/08 05:58:16;;;;;;;12.53;2.70;;;5.90;99.90;;;;;;4958940;28;20218;-65
2022/04/08 06:00:43;;;;;;;11.63;2.83;;;5.90;99.90;;;;;;4945088;28;20229;-64
2022/04/08 06:03:10;;;;;;;13.30;3.00;;;5.90;99.90;;;;;;4964825;28;20198;-65
2022/04/08 06:05:37;;;;;;;12.90;3.33;;;6.00;99.90;;;;;;4948146;28;20198;-64
2022/04/08 06:08:04;;;;;;;9.80;2.60;;;6.10;99.90;;;;;;4950642;28;20293;-65
2022/04/08 06:10:31;;;;;;;13.63;3.33;;;6.10;99.90;;;;;;4962360;28;20206;-65
2022/04/08 06:12:58;;;;;;;15.27;3.30;;;6.30;99.90;;;;;;4960918;28;20304;-67
2022/04/08 06:15:26;;;;;;;11.37;2.70;;;6.60;99.90;;;;;;4962054;28;20207;-67
2022/04/08 06:17:55;;;;;;;10.70;3.30;;;7.90;1.00;;;;;;4932806;28;20354;-64
2022/04/08 06:20:22;;;;;;;9.60;2.80;;;8.10;1.00;;;;;;4943483;28;20221;-64
2022/04/08 06:22:51;;;;;;;13.93;2.70;;;8.40;1.00;;;;;;4958873;28;20721;-64
2022/04/08 06:25:24;;;;;;;10.83;2.63;;;8.00;1.00;;;;;;4961155;28;20234;-65
2022/04/08 06:28:02;;;;;;;10.03;2.93;;;8.20;1.00;;;;;;4933858;28;20298;-67
2022/04/08 06:30:38;;;;;;;9.00;2.80;;;9.10;1.00;;;;;;4961390;28;20552;-68
2022/04/08 06:33:07;;;;;;;10.23;2.57;;;11.70;1.00;;;;;;4960893;28;21618;-68
2022/04/08 06:35:34;;;;;;;7.10;2.70;;;13.00;1.00;;;;;;4961860;28;20234;-68
2022/04/08 06:38:03;;;;;;;8.90;2.80;;;14.30;1.00;;;;;;4961895;28;20770;-68
2022/04/08 06:40:35;;;;;;;10.73;3.30;;;14.50;1.00;;;;;;4965872;28;20209;-65
2022/04/08 06:43:02;;;;;;;10.00;3.17;;;13.40;1.00;;;;;;4951565;28;20205;-65
2022/04/08 06:45:29;;;;;;;10.03;2.80;;;11.70;1.00;;;;;;4945202;28;20226;-68
2022/04/08 06:47:57;;;;;;;11.30;3.20;;;11.30;1.00;;;;;;4946122;28;20203;-65
2022/04/08 06:50:25;;;;;;;11.60;2.93;;;11.80;1.00;;;;;;4959955;28;20677;-65
2022/04/08 06:52:55;;;;;;;10.87;3.03;;;12.50;1.00;;;;;;4944651;28;20594;-66
2022/04/08 06:55:24;;;;;;;9.80;2.80;;;13.50;1.00;;;;;;4961560;28;20265;-67
2022/04/08 06:57:52;;;;;;;11.43;3.60;;;14.80;1.00;;;;;;4945370;28;20252;-68
2022/04/08 07:00:19;;;;;;;10.83;3.00;;;14.30;1.00;;;;;;4959659;28;20230;-66
2022/04/08 07:02:46;;;;;;;12.03;3.40;;;14.70;1.00;;;;;;4962116;28;20278;-68
2022/04/08 07:05:13;;;;;;;10.50;3.60;;;13.20;1.00;;;;;;4944499;28;20198;-66
2022/04/08 07:07:40;;;;;;;12.80;3.50;;;12.60;1.00;;;;;;4942596;28;20672;-65
2022/04/08 07:10:08;;;;;;;11.63;3.70;;;12.60;1.00;;;;;;4966571;28;20764;-65
2022/04/08 07:12:35;;;;;;;11.13;3.30;;;11.80;1.00;;;;;;4965650;28;20198;-67
2022/04/08 07:15:03;;;;;;;9.60;3.50;;;10.90;1.00;;;;;;4950050;28;20226;-66
2022/04/08 07:17:36;;;;;;;7.77;3.53;;;11.40;1.00;;;;;;4969628;28;20233;-68
2022/04/08 07:20:14;;;;;;;9.43;3.40;;;12.20;1.00;;;;;;4964233;28;20218;-67
2022/04/08 07:22:42;;;;;;;8.90;3.20;;;14.40;1.00;;;;;;4951191;28;20205;-65
2022/04/08 07:25:10;;;;;;;9.27;4.00;;;15.20;1.00;;;;;;4949572;28;20246;-65
2022/04/08 07:27:45;;;;;;;13.33;3.37;;;14.70;1.00;;;;;;4940823;28;20198;-68
2022/04/08 07:30:13;;;;;;;7.67;2.93;;;14.20;1.00;;;;;;4939878;28;20226;-69
2022/04/08 07:32:40;;;;;;;9.10;3.23;;;16.40;1.00;;;;;;4950207;28;20685;-66
2022/04/08 07:35:08;;;;;;;7.95;2.92;;;15.60;1.00;;;;;;4966066;28;20246;-68
2022/04/08 07:37:35;;;;;;;9.90;3.45;;;18.10;1.00;;;;;;4959262;28;20240;-68
2022/04/08 07:40:07;;;;;;;8.88;2.90;;;21.10;99.90;;;;;;4935108;28;20201;-66
2022/04/08 07:42:34;;;;;;;8.35;2.40;;;19.80;99.90;;;;;;4949156;28;20206;-66
2022/04/08 07:45:01;;;;;;;8.90;2.92;;;20.30;99.90;;;;;;4968538;28;20201;-67
2022/04/08 07:47:29;;;;;;;9.38;3.08;;;18.90;99.90;;;;;;4966107;28;20212;-64
2022/04/08 07:50:09;;;;;;;9.50;2.80;;;15.70;99.90;;;;;;4967478;28;20203;-65
2022/04/08 07:52:37;;;;;;;8.98;3.40;;;14.50;99.90;;;;;;4957369;28;20190;-65
2022/04/08 07:55:05;;;;;;;9.67;3.30;;;13.80;99.90;;;;;;4956075;28;21076;-65
2022/04/08 07:57:33;;;;;;;7.17;3.27;;;12.90;99.90;;;;;;4951462;28;20735;-65
2022/04/08 08:00:00;;;;;;;7.70;3.53;;;12.20;99.90;;;;;;4967761;28;20210;-67
2022/04/08 08:02:37;;;;;;;8.93;3.50;;;13.00;99.90;;;;;;4951291;28;20187;-65
2022/04/08 08:05:06;;;;;;;6.30;3.33;;;14.00;99.90;;;;;;4949215;28;20202;-65
2022/04/08 08:07:52;;;;;;;8.47;3.73;;;14.70;99.90;;;;;;4968183;28;20198;-65
2022/04/08 08:10:29;;;;;;;12.30;3.80;;;13.80;99.90;;;;;;4967902;28;20258;-66
2022/04/08 08:12:57;;;;;;;8.60;3.43;;;13.80;99.90;;;;;;4966834;28;20670;-67
2022/04/08 08:15:25;;;;;;;8.97;3.70;;;13.40;99.90;;;;;;4969075;28;20197;-67
2022/04/08 08:17:52;;;;;;;8.63;3.07;;;13.50;99.90;;;;;;4953872;28;20896;-66
2022/04/08 08:20:21;;;;;;;9.10;2.73;;;13.50;99.90;;;;;;4959584;28;20230;-65
2022/04/08 08:22:49;;;;;;;10.27;3.47;;;13.00;99.90;;;;;;4946733;28;20276;-67
2022/04/08 08:25:17;;;;;;;9.90;3.00;;;11.90;99.90;;;;;;4935277;28;20275;-67
2022/04/08 08:28:03;;;;;;;7.80;3.33;;;11.70;99.90;;;;;;4944834;28;20212;-67
2022/04/08 08:30:31;;;;;;;6.90;3.70;;;11.70;99.90;;;;;;4942903;28;20223;-68
2022/04/08 08:32:58;;;;;;;5.80;3.07;;;12.50;99.90;;;;;;4963082;28;20199;-66
2022/04/08 08:35:26;;;;;;;10.73;3.10;;;12.10;99.90;;;;;;4929167;29;20218;-68
2022/04/08 08:37:58;;;;;;;7.13;2.73;;;12.10;99.90;;;;;;4927587;28;20287;-67
2022/04/08 08:40:32;;;;;;;11.70;3.40;;;12.30;99.90;;;;;;4927358;28;20198;-67
2022/04/08 08:43:07;;;;;;;7.50;2.80;;;11.90;99.90;;;;;;4909712;28;20207;-68
2022/04/08 08:45:34;;;;;;;8.23;3.07;;;11.60;99.90;;;;;;4946087;28;20209;-68
2022/04/08 08:48:02;;;;;;;6.67;3.07;;;11.50;99.90;;;;;;4943263;28;20535;-68
2022/04/08 08:50:30;;;;;;;8.73;2.97;;;11.80;99.90;;;;;;4944172;28;20251;-67
2022/04/08 08:52:58;;;;;;;11.27;3.70;;;11.60;99.90;;;;;;4945215;28;20251;-68
2022/04/08 08:55:25;;;;;;;8.17;3.80;;;11.50;99.90;;;;;;4941153;28;20207;-68
2022/04/08 08:57:52;;;;;;;8.57;3.33;;;11.30;1.00;;;;;;4950117;28;20200;-65
2022/04/08 09:00:22;;;;;;;7.93;3.70;;;11.50;1.00;;;;;;4931263;29;20195;-65
2022/04/08 09:02:50;;;;;;;8.13;3.70;;;12.00;1.00;;;;;;4944717;28;20195;-66
2022/04/08 09:05:20;;;;;;;10.00;4.10;;;11.80;99.90;;;;;;4917224;28;20239;-66
2022/04/08 09:07:57;;;;;;;6.67;3.67;;;11.50;99.90;;;;;;4943538;28;20204;-67
2022/04/08 09:10:31;;;;;;;6.87;4.07;;;11.20;99.90;;;;;;4944153;28;20207;-67
2022/04/08 09:13:00;;;;;;;7.50;3.43;;;11.20;99.90;;;;;;4943028;28;20211;-67
2022/04/08 09:15:28;;;;;;;6.83;3.80;;;11.10;99.90;;;;;;4941560;28;20199;-65
2022/04/08 09:18:08;;;;;;;7.57;3.57;;;11.00;1.00;;;;;;4926019;28;20206;-65
2022/04/08 09:20:44;;;;;;;10.30;3.90;;;11.20;99.90;;;;;;4940515;28;20250;-65
2022/04/08 09:23:12;;;;;;;5.77;3.63;;;11.20;99.90;;;;;;4937761;28;20188;-67
2022/04/08 09:25:40;;;;;;;8.07;3.57;;;11.30;99.90;;;;;;4927874;28;20357;-65
2022/04/08 09:28:17;;;;;;;6.30;3.00;;;11.60;99.90;;;;;;4961451;28;20202;-66
2022/04/08 09:30:55;;;;;;;6.20;3.43;;;11.20;99.90;;;;;;4944344;28;20194;-66
2022/04/08 09:33:25;;;;;;;10.33;3.43;;;11.30;99.90;;;;;;4960756;28;20194;-65
2022/04/08 09:35:57;;;;;;;5.03;3.30;;;11.40;99.90;;;;;;4946874;28;20220;-68
2022/04/08 09:38:26;;;;;;;7.63;3.60;;;11.70;99.90;;;;;;4964344;28;20195;-66
2022/04/08 09:41:06;;;;;;;10.80;4.40;;;11.60;99.90;;;;;;4965898;28;20208;-67
2022/04/08 09:43:35;;;;;;;7.67;3.87;;;11.90;99.90;;;;;;4964705;28;20258;-67
2022/04/08 09:46:17;;;;;;;12.03;4.17;;;11.50;99.90;;;;;;4936497;28;20198;-66
2022/04/08 09:48:44;;;;;;;9.70;3.87;;;11.40;99.90;;;;;;4962438;28;20190;-67
2022/04/08 09:51:21;;;;;;;9.43;3.57;;;11.40;99.90;;;;;;4951016;28;20779;-67
2022/04/08 09:54:00;;;;;;;5.77;3.40;;;11.60;99.90;;;;;;4950124;28;20321;-65
2022/04/08 09:56:28;;;;;;;8.73;4.60;;;12.00;99.90;;;;;;4945901;28;20195;-68
2022/04/08 09:59:21;;;;;;;8.87;4.27;;;12.40;99.90;;;;;;4961623;28;20198;-68
2022/04/08 10:02:09;;;;;;;6.97;3.70;;;12.20;99.90;;;;;;4961589;28;20329;-67
2022/04/08 10:04:37;;;;;;;5.63;3.93;;;11.80;99.90;;;;;;4948308;28;20261;-68
2022/04/08 10:07:05;;;;;;;6.87;3.97;;;11.70;99.90;;;;;;4959672;28;20258;-66
2022/04/08 10:09:39;;;;;;;6.50;3.60;;;12.00;99.90;;;;;;4962578;28;20289;-67
2022/04/08 10:12:29;;;;;;;8.70;3.43;;;12.00;99.90;;;;;;4950943;28;20237;-67
2022/04/08 10:15:11;;;;;;;6.27;3.80;;;12.40;99.90;;;;;;4947381;28;20207;-67
2022/04/08 10:17:38;;;;;;;5.33;3.13;;;12.40;99.90;;;;;;4945240;28;20236;-67
2022/04/08 10:20:21;;;;;;;9.80;4.50;;;12.40;99.90;;;;;;4934250;28;20872;-68
2022/04/08 10:22:48;;;;;;;6.93;3.40;;;12.60;99.90;;;;;;4962234;28;20752;-65
2022/04/08 10:25:17;;;;;;;4.80;3.00;;;12.80;99.90;;;;;;4956446;28;20722;-67
2022/04/08 10:27:45;;;;;;;5.43;3.40;;;12.10;99.90;;;;;;4928670;28;20230;-66
2022/04/08 10:30:22;;;;;;;6.23;3.60;;;11.80;99.90;;;;;;4940028;28;20217;-67
2022/04/08 10:33:00;;;;;;;9.07;3.07;;;11.90;99.90;;;;;;4938659;28;20203;-67
2022/04/08 10:35:27;;;;;;;6.53;3.10;;;11.60;99.90;;;;;;4942608;28;20190;-66
2022/04/08 10:38:06;;;;;;;7.53;2.93;;;11.80;99.90;;;;;;4929605;28;20734;-68
2022/04/08 10:40:35;;;;;;;5.73;2.60;;;11.80;99.90;;;;;;4941815;28;20199;-66
2022/04/08 10:43:11;;;;;;;5.40;3.60;;;11.90;99.90;;;;;;4941405;28;20258;-66
2022/04/08 10:45:39;;;;;;;9.83;6.63;;;11.80;99.90;;;;;;4929145;28;20254;-68
2022/04/08 10:48:09;;;;;;;5.90;3.70;;;11.80;99.90;;;;;;4922581;28;20266;-66
2022/04/08 10:50:38;;;;;;;6.23;3.47;;;11.90;99.90;;;;;;4929074;29;20267;-65
2022/04/08 10:53:12;;;;;;;7.67;3.43;;;11.60;99.90;;;;;;4939973;28;20613;-66
2022/04/08 10:55:48;;;;;;;4.23;2.87;;;11.90;99.90;;;;;;4943001;28;20196;-67
2022/04/08 10:58:28;;;;;;;5.00;2.23;;;11.90;99.90;;;;;;4911654;29;20273;-65
2022/04/08 11:00:55;;;;;;;4.80;2.57;;;11.50;99.90;;;;;;4937686;28;20225;-66
2022/04/08 11:03:29;;;;;;;7.03;2.40;;;11.90;99.90;;;;;;4933295;28;20206;-65
2022/04/08 11:05:58;;;;;;;4.03;2.43;;;11.30;99.90;;;;;;4936557;28;20283;-66
2022/04/08 11:08:25;;;;;;;4.57;2.40;;;11.40;99.90;;;;;;4911609;29;20199;-66
2022/04/08 11:10:59;;;;;;;3.60;1.93;;;11.10;99.90;;;;;;4945164;28;20759;-65
2022/04/08 11:13:26;;;;;;;3.67;2.53;;;11.30;99.90;;;;;;4912905;29;20207;-67
2022/04/08 11:15:59;;;;;;;3.43;2.10;;;11.90;99.90;;;;;;4943718;28;20209;-65
2022/04/08 11:18:27;;;;;;;5.03;2.10;;;12.10;99.90;;;;;;4942981;28;20230;-66
2022/04/08 11:20:54;;;;;;;6.00;2.53;;;11.40;99.90;;;;;;4944671;28;20211;-65
2022/04/08 11:23:30;;;;;;;4.20;2.00;;;11.00;99.90;;;;;;4930945;29;20548;-65
2022/04/08 11:25:57;;;;;;;6.83;2.20;;;10.90;99.90;;;;;;4928261;28;20276;-66
2022/04/08 11:28:24;;;;;;;7.93;2.77;;;11.00;99.90;;;;;;4947184;28;20282;-66
2022/04/08 11:30:58;;;;;;;8.33;3.47;;;11.10;99.90;;;;;;4959484;28;20229;-67
2022/04/08 11:33:26;;;;;;;5.80;2.60;;;11.10;99.90;;;;;;4960563;28;20193;-67
2022/04/08 11:35:57;;;;;;;6.07;3.03;;;11.60;99.90;;;;;;4961808;28;20210;-68
2022/04/08 11:38:27;;;;;;;4.50;2.93;;;12.10;99.90;;;;;;4946111;28;20657;-67
2022/04/08 11:40:54;;;;;;;3.60;2.83;;;12.20;99.90;;;;;;4948752;28;20195;-66
2022/04/08 11:43:23;;;;;;;5.53;2.70;;;11.80;99.90;;;;;;4959315;28;20518;-66
2022/04/08 11:45:52;;;;;;;5.27;3.40;;;11.70;99.90;;;;;;4944069;28;20225;-66
2022/04/08 11:48:23;;;;;;;5.90;3.10;;;11.50;99.90;;;;;;4949766;28;20238;-66
2022/04/08 11:50:55;;;;;;;6.33;3.10;;;11.40;99.90;;;;;;4944567;28;20194;-66
2022/04/08 11:53:25;;;;;;;6.23;3.17;;;11.00;99.90;;;;;;4963659;28;20564;-65
2022/04/08 11:55:53;;;;;;;4.77;2.97;;;11.30;99.90;;;;;;4963941;28;20202;-67
2022/04/08 11:58:20;;;;;;;5.17;3.00;;;11.30;99.90;;;;;;4945561;28;20492;-66
2022/04/08 12:00:51;;;;;;;4.70;2.30;;;11.50;99.90;;;;;;4954445;28;20658;-66
2022/04/08 12:03:36;;;;;;;4.27;2.50;;;11.50;99.90;;;;;;4963726;28;20226;-66
2022/04/08 12:06:04;;;;;;;5.00;2.20;;;11.50;99.90;;;;;;4948730;28;20193;-66
2022/04/08 12:08:37;;;;;;;7.33;2.47;;;11.40;99.90;;;;;;4950564;28;20194;-67
2022/04/08 12:11:09;;;;;;;4.77;2.37;;;11.20;99.90;;;;;;4938578;28;20240;-67
2022/04/08 12:13:42;;;;;;;4.30;2.40;;;11.50;99.90;;;;;;4949732;28;20207;-68
2022/04/08 12:16:11;;;;;;;5.90;2.30;;;11.90;99.90;;;;;;4947198;28;20779;-67
2022/04/08 12:18:52;;;;;;;3.53;2.00;;;12.10;99.90;;;;;;4963172;28;20195;-65
2022/04/08 12:21:27;;;;;;;4.63;1.67;;;12.10;99.90;;;;;;4950093;28;20224;-66
2022/04/08 12:23:57;;;;;;;3.47;1.80;;;11.80;99.90;;;;;;4944878;28;20210;-66
2022/04/08 12:26:28;;;;;;;3.83;1.50;;;11.80;99.90;;;;;;4960953;28;20235;-67
2022/04/08 12:29:15;;;;;;;4.20;1.60;;;11.50;99.90;;;;;;4949794;28;20691;-67
2022/04/08 12:31:47;;;;;;;5.97;1.87;;;12.00;99.90;;;;;;4948909;28;20226;-67
2022/04/08 12:34:16;;;;;;;3.70;1.83;;;12.40;99.90;;;;;;4954062;28;20199;-69
2022/04/08 12:36:45;;;;;;;4.07;1.83;;;12.10;99.90;;;;;;4965724;28;20687;-66
2022/04/08 12:39:14;;;;;;;3.97;1.90;;;11.80;99.90;;;;;;4938406;28;20202;-66
2022/04/08 12:41:44;;;;;;;5.93;1.97;;;11.60;99.90;;;;;;4933539;28;20223;-65
2022/04/08 12:44:14;;;;;;;3.67;2.13;;;11.80;99.90;;;;;;4965976;28;20546;-67
2022/04/08 12:46:44;;;;;;;3.63;2.20;;;11.30;99.90;;;;;;4950824;28;20198;-67
2022/04/08 12:49:12;;;;;;;2.93;1.70;;;11.60;99.90;;;;;;4961901;28;20199;-67
2022/04/08 12:51:39;;;;;;;6.70;1.83;;;11.70;99.90;;;;;;4947002;28;20282;-66
2022/04/08 12:54:06;;;;;;;2.70;1.80;;;11.60;99.90;;;;;;4964662;28;20195;-66
2022/04/08 12:56:36;;;;;;;4.87;1.90;;;11.00;99.90;;;;;;4956003;28;20199;-66
2022/04/08 12:59:03;;;;;;;4.57;1.80;;;11.00;99.90;;;;;;4966227;28;20222;-67
2022/04/08 13:01:30;;;;;;;6.57;1.80;;;11.10;99.90;;;;;;4954398;28;20273;-67
2022/04/08 13:03:57;;;;;;;4.27;2.40;;;11.00;99.90;;;;;;4960603;28;20266;-66
2022/04/08 13:06:28;;;;;;;4.30;1.83;;;10.80;99.90;;;;;;4946181;28;20207;-66
2022/04/08 13:08:55;;;;;;;6.63;1.90;;;10.70;99.90;;;;;;4945218;28;20202;-68
2022/04/08 13:11:22;;;;;;;5.67;1.63;;;11.10;99.90;;;;;;4953123;28;20674;-65